»·PEaware :: UAL809 KSNA-KDEN

UAL809 :: KSNA-KDEN

FLIGHT INFORMATION

Flight Status: Arrived
Operator:
United Airlines
More flights by this operator :: More flights under this callsign
Pilot: Brandon G. (13)
Aircraft: AIRBUS A320
(A320)
More flights by this aircraft type
Origin: KSNA John Wayne-Orange Co
United States
Destination: KDEN Denver Intl
United States
More flights between these airports :: More routes between these airports
Route: PIGGN1 AVRRY EED J236 TBC OURAY LDORA2
File this flight plan on PilotEdge
Remarks:
Altitude:
(Current/Filed)
35,000ft
Speed:
(Current/Filed)
425kts
Departed: 16-Aug-17 03:37 PM
Arrived: 16-Aug-17 05:24 PM
Distance/Time
Traveled:
734nm/1:46
Distance/Time
To Go:
Arrived

Flight Plot

Page will automatically refresh every two minutes.

Flight plan parsing failed; only flown route is shown


Map Options




Map Legend


Flown Route
Filed Route
Departure Airport
Arrival Airport
Navaid (VOR, NDB)
Fix

Horizontal Profiles

Position Reports

Time Latitude Longitude Heading Altitude Ground
Speed
16-Aug-17 15:17 33.679386 -117.862373 117 64ft 0kts
16-Aug-17 15:18 33.679386 -117.862373 117 64ft 0kts
16-Aug-17 15:19 33.679386 -117.862373 117 64ft 0kts
16-Aug-17 15:20 33.679386 -117.862373 117 64ft 0kts
16-Aug-17 15:21 33.679386 -117.862373 117 64ft 0kts
16-Aug-17 15:22 33.679386 -117.862373 117 64ft 0kts
16-Aug-17 15:23 33.679386 -117.862373 117 64ft 0kts
16-Aug-17 15:24 33.679386 -117.862373 117 64ft 0kts
16-Aug-17 15:25 33.679386 -117.862373 117 64ft 0kts
16-Aug-17 15:26 33.679386 -117.862373 117 64ft 0kts
16-Aug-17 15:27 33.679386 -117.862373 117 64ft 0kts
16-Aug-17 15:28 33.679386 -117.862373 117 64ft 0kts
16-Aug-17 15:29 33.679386 -117.862373 117 64ft 0kts
16-Aug-17 15:30 33.679386 -117.862373 117 64ft 0kts
16-Aug-17 15:31 33.679386 -117.862373 117 64ft 0kts
16-Aug-17 15:32 33.679386 -117.862373 117 64ft 0kts
16-Aug-17 15:33 33.679386 -117.862373 117 64ft 0kts
16-Aug-17 15:34 33.679386 -117.862373 117 64ft 0kts
16-Aug-17 15:35 33.679254 -117.863112 25 64ft 0kts
16-Aug-17 15:36 33.679254 -117.863112 25 64ft 0kts
16-Aug-17 15:36 33.679254 -117.863112 25 64ft 0kts
16-Aug-17 15:37 33.680600 -117.862816 295 64ft 1kts
16-Aug-17 15:38 33.680636 -117.862908 295 64ft 0kts
16-Aug-17 15:39 33.681323 -117.864732 279 64ft 15kts
16-Aug-17 15:41 33.653817 -117.881331 204 708ft 166kts
16-Aug-17 15:41 33.610689 -117.891812 190 2632ft 226kts
16-Aug-17 15:42 33.542530 -117.879832 154 5294ft 273kts
16-Aug-17 15:43 33.491989 -117.816124 116 8031ft 290kts
16-Aug-17 15:44 33.480052 -117.722411 85 10310ft 317kts
16-Aug-17 15:45 33.520071 -117.616867 59 11067ft 392kts
16-Aug-17 15:46 33.574554 -117.499758 67 12968ft 407kts
16-Aug-17 15:47 33.580066 -117.359795 91 14834ft 437kts
16-Aug-17 15:48 33.579996 -117.224899 77 19183ft 389kts
16-Aug-17 15:49 33.608030 -117.095954 75 20744ft 414kts
16-Aug-17 15:50 33.627362 -116.955601 92 22013ft 441kts
16-Aug-17 15:51 33.624094 -116.807549 92 23742ft 445kts
16-Aug-17 15:52 33.620065 -116.655098 92 24527ft 476kts
16-Aug-17 15:53 33.615652 -116.496886 92 26054ft 483kts
16-Aug-17 15:54 33.611048 -116.338675 92 27311ft 491kts
16-Aug-17 15:55 33.606994 -116.180426 92 29366ft 475kts
16-Aug-17 15:56 33.610428 -116.023921 71 30618ft 475kts
16-Aug-17 15:57 33.655796 -115.876955 68 31750ft 474kts
16-Aug-17 15:58 33.701683 -115.731185 69 32791ft 472kts
16-Aug-17 15:59 33.748673 -115.586500 59 33706ft 471kts
16-Aug-17 16:00 33.840179 -115.475914 39 34135ft 473kts
16-Aug-17 16:01 33.937047 -115.372348 39 34883ft 471kts
16-Aug-17 16:02 34.034706 -115.267679 39 34868ft 488kts
16-Aug-17 16:03 34.135522 -115.159482 39 34867ft 495kts
16-Aug-17 16:04 34.237297 -115.049873 39 34866ft 495kts
16-Aug-17 16:05 34.339312 -114.939578 39 34887ft 501kts
16-Aug-17 16:06 34.442145 -114.828018 39 34876ft 500kts
16-Aug-17 16:07 34.544537 -114.716564 39 34907ft 499kts
16-Aug-17 16:08 34.646601 -114.605061 39 34877ft 499kts
16-Aug-17 16:09 34.747688 -114.494021 41 34882ft 500kts
16-Aug-17 16:10 34.820958 -114.349655 61 34884ft 511kts
16-Aug-17 16:11 34.886410 -114.201329 61 34872ft 509kts
16-Aug-17 16:12 34.952637 -114.050447 61 35051ft 508kts
16-Aug-17 16:13 35.018723 -113.899208 61 35051ft 508kts
16-Aug-17 16:14 35.084661 -113.747630 61 35056ft 509kts
16-Aug-17 16:15 35.148575 -113.600346 61 35057ft 508kts
16-Aug-17 16:16 35.213943 -113.448773 61 35058ft 508kts
16-Aug-17 16:17 35.278025 -113.299383 61 35061ft 512kts
16-Aug-17 16:18 35.343961 -113.145053 61 35056ft 512kts
16-Aug-17 16:19 35.409161 -112.991777 61 35157ft 512kts
16-Aug-17 16:21 35.474699 -112.836997 61 35288ft 513kts
16-Aug-17 16:22 35.539069 -112.684262 61 35289ft 511kts
16-Aug-17 16:23 35.603654 -112.530317 61 35285ft 512kts
16-Aug-17 16:24 35.668068 -112.376060 61 35273ft 512kts
16-Aug-17 16:25 35.731574 -112.223142 62 35273ft 512kts
16-Aug-17 16:26 35.795602 -112.068373 62 35280ft 517kts
16-Aug-17 16:27 35.860087 -111.911751 62 35277ft 515kts
16-Aug-17 16:28 35.924163 -111.755381 62 35277ft 516kts
16-Aug-17 16:29 35.988067 -111.598687 62 35276ft 514kts
16-Aug-17 16:30 36.051606 -111.442134 62 35277ft 513kts
16-Aug-17 16:31 36.112355 -111.291741 62 35276ft 513kts
16-Aug-17 16:32 36.183604 -111.140921 57 35154ft 512kts
16-Aug-17 16:33 36.256116 -110.990538 57 35080ft 513kts
16-Aug-17 16:34 36.328482 -110.839722 57 35087ft 516kts
16-Aug-17 16:35 36.400664 -110.688605 57 35084ft 514kts
16-Aug-17 16:36 36.472842 -110.536857 57 35084ft 515kts
16-Aug-17 16:37 36.544629 -110.385218 57 35085ft 514kts
16-Aug-17 16:38 36.615300 -110.235136 57 35085ft 514kts
16-Aug-17 16:39 36.686392 -110.083596 57 35195ft 512kts
16-Aug-17 16:40 36.757643 -109.931033 57 35255ft 511kts
16-Aug-17 16:41 36.828903 -109.777746 57 35250ft 515kts
16-Aug-17 16:42 36.899725 -109.624696 57 35250ft 512kts
16-Aug-17 16:43 36.970123 -109.471851 57 35249ft 512kts
16-Aug-17 16:44 37.039345 -109.320849 58 35246ft 513kts
16-Aug-17 16:45 37.108081 -109.170126 57 35213ft 509kts
16-Aug-17 16:46 37.177426 -109.017758 58 35204ft 511kts
16-Aug-17 16:47 37.246980 -108.863938 58 35201ft 511kts
16-Aug-17 16:48 37.316424 -108.709583 57 35202ft 512kts
16-Aug-17 16:49 37.385480 -108.555460 57 35203ft 512kts
16-Aug-17 16:50 37.454372 -108.400918 57 35204ft 511kts
16-Aug-17 16:51 37.520170 -108.252500 58 35202ft 512kts
16-Aug-17 16:52 37.588525 -108.097711 58 35346ft 509kts
16-Aug-17 16:53 37.656698 -107.942598 58 35416ft 509kts
16-Aug-17 16:54 37.724289 -107.788081 58 35413ft 510kts
16-Aug-17 16:55 37.791816 -107.632954 57 35413ft 506kts
16-Aug-17 16:56 37.858987 -107.477898 57 35414ft 507kts
16-Aug-17 16:57 37.924210 -107.326608 58 35410ft 507kts
16-Aug-17 16:58 37.990749 -107.171365 58 35413ft 504kts
16-Aug-17 16:59 38.056861 -107.016556 58 35288ft 504kts
16-Aug-17 17:00 38.121246 -106.865219 58 35296ft 505kts
16-Aug-17 17:01 38.186823 -106.710248 58 35303ft 504kts
16-Aug-17 17:02 38.259347 -106.564651 37 35336ft 491kts
16-Aug-17 17:03 38.356319 -106.444432 39 35163ft 494kts
16-Aug-17 17:04 38.450585 -106.327179 39 34260ft 491kts
16-Aug-17 17:05 38.549323 -106.204104 39 33316ft 508kts
16-Aug-17 17:06 38.648161 -106.080331 39 32068ft 509kts
16-Aug-17 17:07 38.747167 -105.955810 39 30368ft 508kts
16-Aug-17 17:08 38.845155 -105.832059 41 28768ft 500kts
16-Aug-17 17:09 38.942228 -105.708483 41 27251ft 495kts
16-Aug-17 17:10 39.032939 -105.592568 40 25916ft 442kts
16-Aug-17 17:11 39.114598 -105.488147 40 24253ft 428kts
16-Aug-17 17:12 39.196101 -105.384016 41 21539ft 410kts
16-Aug-17 17:13 39.260736 -105.276733 73 19410ft 376kts
16-Aug-17 17:14 39.285779 -105.154021 74 17942ft 355kts
16-Aug-17 17:15 39.307940 -105.036904 74 16484ft 324kts
16-Aug-17 17:16 39.325405 -104.943443 74 15111ft 307kts
16-Aug-17 17:17 39.346591 -104.842436 69 13698ft 285kts
16-Aug-17 17:18 39.369600 -104.749319 72 13024ft 267kts
16-Aug-17 17:19 39.411404 -104.686253 6 13177ft 257kts
16-Aug-17 17:20 39.476123 -104.668942 7 12988ft 251kts
16-Aug-17 17:21 39.541344 -104.661133 350 13115ft 222kts
16-Aug-17 17:22 39.595576 -104.663274 358 12084ft 188kts
16-Aug-17 17:23 39.648893 -104.662960 3 9656ft 197kts
16-Aug-17 17:24 39.698093 -104.662323 1 8185ft 159kts
16-Aug-17 17:25 39.741944 -104.661735 0 7171ft 160kts
16-Aug-17 17:26 39.786390 -104.661145 0 6299ft 160kts
16-Aug-17 17:27 39.830302 -104.660564 359 5472ft 159kts
16-Aug-17 17:28 39.849177 -104.661551 332 5442ft 0kts
16-Aug-17 17:29 39.849306 -104.661639 332 5442ft 5kts
16-Aug-17 17:30 39.852051 -104.663905 269 5442ft 13kts

Navigation Log

Ident Type
Flight plan parsing failed, navigation log unavailable